createdAt,value
2022-08-26T00:01:18.289Z,11.35
2022-08-26T00:03:51.099Z,11.30
2022-08-26T00:06:20.899Z,11.48
2022-08-26T00:08:47.661Z,11.32
2022-08-26T00:11:15.251Z,11.27
2022-08-26T00:13:53.054Z,10.90
2022-08-26T00:16:19.994Z,11.63
2022-08-26T00:18:46.506Z,11.23
2022-08-26T00:21:12.981Z,11.52
2022-08-26T00:23:40.263Z,11.07
2022-08-26T00:26:06.904Z,11.50
2022-08-26T00:28:35.961Z,11.65
2022-08-26T00:31:02.520Z,10.82
2022-08-26T00:33:29.946Z,11.95
2022-08-26T00:35:56.896Z,11.20
2022-08-26T00:38:24.763Z,11.52
2022-08-26T00:40:55.995Z,11.80
2022-08-26T00:43:24.161Z,12.15
2022-08-26T00:46:05.054Z,11.85
2022-08-26T00:48:34.509Z,10.82
2022-08-26T00:51:11.652Z,12.05
2022-08-26T00:53:45.648Z,11.30
2022-08-26T00:56:31.933Z,11.77
2022-08-26T00:59:05.126Z,11.43
2022-08-26T01:01:32.216Z,11.55
2022-08-26T01:04:00.897Z,11.20
2022-08-26T01:06:28.522Z,12.10
2022-08-26T01:08:56.086Z,11.43
2022-08-26T01:11:24.141Z,11.23
2022-08-26T01:14:00.095Z,11.95
2022-08-26T01:16:26.861Z,11.85
2022-08-26T01:18:59.491Z,11.15
2022-08-26T01:21:31.090Z,11.27
2022-08-26T01:23:59.435Z,11.60
2022-08-26T01:26:35.673Z,12.00
2022-08-26T01:29:05.246Z,11.18
2022-08-26T01:31:39.023Z,11.10
2022-08-26T01:34:20.329Z,11.50
2022-08-26T01:36:51.410Z,12.07
2022-08-26T01:39:18.887Z,12.45
2022-08-26T01:41:46.292Z,11.93
2022-08-26T01:44:18.554Z,12.38
2022-08-26T01:46:48.807Z,12.00
2022-08-26T01:49:18.017Z,12.05
2022-08-26T01:51:48.029Z,11.50
2022-08-26T01:54:15.913Z,11.30
2022-08-26T01:56:42.803Z,11.00
2022-08-26T01:59:15.166Z,11.55
2022-08-26T02:01:44.033Z,11.40
2022-08-26T02:04:23.359Z,10.95
2022-08-26T02:06:51.710Z,10.77
2022-08-26T02:09:19.767Z,11.45
2022-08-26T02:11:47.868Z,11.35
2022-08-26T02:14:20.952Z,11.02
2022-08-26T02:16:50.439Z,10.95
2022-08-26T02:19:21.445Z,11.70
2022-08-26T02:21:52.060Z,11.90
2022-08-26T02:24:30.261Z,11.20
2022-08-26T02:26:58.086Z,12.20
2022-08-26T02:29:29.095Z,12.77
2022-08-26T02:31:55.791Z,12.38
2022-08-26T02:34:31.306Z,11.82
2022-08-26T02:37:01.060Z,13.00
2022-08-26T02:39:29.629Z,13.23
2022-08-26T02:41:57.513Z,13.47
2022-08-26T02:44:24.001Z,12.95
2022-08-26T02:46:52.828Z,14.07
2022-08-26T02:49:21.834Z,13.10
2022-08-26T02:51:49.458Z,13.05
2022-08-26T02:54:18.132Z,13.88
2022-08-26T02:56:45.302Z,14.27
2022-08-26T02:59:15.386Z,13.45
2022-08-26T03:01:42.550Z,14.45
2022-08-26T03:04:11.109Z,14.13
2022-08-26T03:06:39.308Z,13.40
2022-08-26T03:09:09.083Z,13.30
2022-08-26T03:11:36.700Z,13.32
2022-08-26T03:14:03.957Z,13.63
2022-08-26T03:16:36.116Z,14.25
2022-08-26T03:19:06.063Z,13.45
2022-08-26T03:21:33.232Z,13.80
2022-08-26T03:24:00.505Z,13.02
2022-08-26T03:26:28.399Z,13.45
2022-08-26T03:29:14.680Z,14.55
2022-08-26T03:31:41.979Z,12.88
2022-08-26T03:34:09.675Z,13.88
2022-08-26T03:36:38.623Z,13.25
2022-08-26T03:39:06.442Z,12.65
2022-08-26T03:41:36.751Z,13.48
2022-08-26T03:44:05.718Z,12.68
2022-08-26T03:46:33.671Z,12.93
2022-08-26T03:49:02.071Z,13.13
2022-08-26T03:51:29.069Z,13.35
2022-08-26T03:53:56.016Z,13.43
2022-08-26T03:56:23.746Z,14.40
2022-08-26T03:58:50.509Z,13.63
2022-08-26T04:01:17.594Z,12.63
2022-08-26T04:03:58.224Z,13.55
2022-08-26T04:06:36.400Z,12.65
2022-08-26T04:09:06.818Z,14.35
2022-08-26T04:11:35.906Z,14.20
2022-08-26T04:14:26.130Z,12.93
2022-08-26T04:16:55.243Z,13.68
2022-08-26T04:19:23.178Z,13.73
2022-08-26T04:21:52.768Z,13.00
2022-08-26T04:24:22.096Z,14.18
2022-08-26T04:26:48.810Z,14.40
2022-08-26T04:29:19.078Z,13.35
2022-08-26T04:31:48.066Z,14.43
2022-08-26T04:34:15.274Z,13.10
2022-08-26T04:36:43.083Z,13.27
2022-08-26T04:39:16.856Z,16.38
2022-08-26T04:41:45.281Z,14.88
2022-08-26T04:44:11.856Z,15.90
2022-08-26T04:46:39.835Z,16.38
2022-08-26T04:49:11.096Z,16.23
2022-08-26T04:51:38.322Z,15.95
2022-08-26T04:54:07.132Z,17.08
2022-08-26T04:56:40.042Z,16.63
2022-08-26T04:59:16.530Z,16.67
2022-08-26T05:01:48.854Z,16.17
2022-08-26T05:04:19.035Z,17.58
2022-08-26T05:06:46.579Z,16.27
2022-08-26T05:09:15.300Z,17.00
2022-08-26T05:11:42.294Z,14.82
2022-08-26T05:14:08.873Z,16.20
2022-08-26T05:16:35.479Z,18.95
2022-08-26T05:19:03.513Z,18.70
2022-08-26T05:21:30.031Z,18.83
2022-08-26T05:23:57.096Z,18.98
2022-08-26T05:26:29.567Z,17.33
2022-08-26T05:28:57.244Z,17.58
2022-08-26T05:31:27.280Z,18.63
2022-08-26T05:33:54.913Z,19.02
2022-08-26T05:36:23.258Z,18.25
2022-08-26T05:38:53.794Z,19.40
2022-08-26T05:41:34.520Z,20.17
2022-08-26T05:44:06.907Z,19.55
2022-08-26T05:46:34.608Z,20.00
2022-08-26T05:49:02.492Z,21.83
2022-08-26T05:51:30.429Z,20.70
2022-08-26T05:53:58.402Z,20.73
2022-08-26T05:56:27.421Z,18.77
2022-08-26T05:58:55.563Z,19.30
2022-08-26T06:01:28.165Z,20.20
2022-08-26T06:03:57.537Z,19.38
2022-08-26T06:06:29.279Z,21.13
2022-08-26T06:08:57.907Z,22.92
2022-08-26T06:11:26.056Z,20.40
2022-08-26T06:13:54.702Z,19.58
2022-08-26T06:16:23.592Z,21.40
2022-08-26T06:21:22.392Z,21.30
2022-08-26T06:24:09.221Z,23.40
2022-08-26T06:26:36.573Z,23.58
2022-08-26T06:29:04.726Z,23.70
2022-08-26T06:31:33.766Z,24.38
2022-08-26T06:34:01.349Z,24.38
2022-08-26T06:36:30.466Z,24.88
2022-08-26T06:39:01.337Z,25.23
2022-08-26T06:41:27.920Z,22.95
2022-08-26T06:43:54.390Z,24.15
2022-08-26T06:46:22.002Z,24.33
2022-08-26T06:48:49.099Z,25.30
2022-08-26T06:51:22.364Z,24.38
2022-08-26T06:53:52.379Z,24.58
2022-08-26T06:56:22.845Z,25.25
2022-08-26T06:58:51.292Z,25.05
2022-08-26T07:01:29.329Z,23.23
2022-08-26T07:03:59.136Z,24.40
2022-08-26T07:06:28.087Z,23.95
2022-08-26T07:09:01.661Z,24.85
2022-08-26T07:11:30.836Z,23.08
2022-08-26T07:13:58.913Z,23.95
2022-08-26T07:16:28.325Z,23.25
2022-08-26T07:18:56.836Z,22.75
2022-08-26T07:21:24.971Z,22.20
2022-08-26T07:23:54.620Z,23.58
2022-08-26T07:26:26.941Z,23.50
2022-08-26T07:28:56.773Z,24.38
2022-08-26T07:31:26.595Z,23.25
2022-08-26T07:36:22.003Z,24.83
2022-08-26T07:38:49.171Z,24.13
2022-08-26T07:41:18.591Z,22.38
2022-08-26T07:43:45.989Z,23.38
2022-08-26T07:46:18.424Z,25.98
2022-08-26T07:48:48.972Z,27.20
2022-08-26T07:51:18.022Z,25.33
2022-08-26T07:53:48.061Z,24.85
2022-08-26T07:56:19.113Z,27.25
2022-08-26T07:58:48.983Z,26.50
2022-08-26T08:01:18.118Z,28.33
2022-08-26T08:03:45.394Z,29.17
2022-08-26T08:06:11.938Z,29.10
2022-08-26T08:08:40.726Z,30.17
2022-08-26T08:11:07.486Z,29.48
2022-08-26T08:13:37.836Z,31.40
2022-08-26T08:16:05.573Z,30.33
2022-08-26T08:18:32.087Z,32.20
2022-08-26T08:21:21.397Z,30.90
2022-08-26T08:23:48.242Z,30.92
2022-08-26T08:26:15.364Z,30.60
2022-08-26T08:28:43.687Z,29.90
2022-08-26T08:31:55.963Z,30.17
2022-08-26T08:34:15.145Z,31.95
2022-08-26T08:36:41.829Z,33.42
2022-08-26T08:39:09.277Z,28.88
2022-08-26T08:42:17.641Z,30.08
2022-08-26T08:44:52.097Z,32.95
2022-08-26T08:47:36.412Z,32.67
2022-08-26T08:50:33.998Z,35.28
2022-08-26T08:53:09.081Z,34.33
2022-08-26T08:55:58.610Z,36.03
2022-08-26T08:58:39.519Z,36.70
2022-08-26T09:01:12.049Z,35.60
2022-08-26T09:03:55.605Z,39.28
2022-08-26T09:06:24.097Z,35.40
2022-08-26T09:08:56.341Z,36.03
2022-08-26T09:11:23.104Z,35.72
2022-08-26T09:13:54.202Z,32.97
2022-08-26T09:16:46.668Z,37.42
2022-08-26T09:19:41.392Z,32.97
2022-08-26T09:22:09.535Z,34.97
2022-08-26T09:24:41.754Z,34.03
2022-08-26T09:27:50.510Z,33.80
2022-08-26T09:30:33.143Z,34.92
2022-08-26T09:33:06.709Z,34.42
2022-08-26T09:35:40.394Z,36.10
2022-08-26T09:38:28.154Z,36.67
2022-08-26T09:41:06.908Z,38.45
2022-08-26T09:43:35.343Z,34.42
2022-08-26T09:46:22.570Z,35.63
2022-08-26T09:48:51.633Z,38.17
2022-08-26T09:51:31.224Z,37.38
2022-08-26T09:54:03.096Z,36.70
2022-08-26T09:56:38.316Z,38.00
2022-08-26T09:59:11.123Z,39.47
2022-08-26T10:01:42.682Z,37.65
2022-08-26T10:04:14.047Z,36.80
2022-08-26T10:06:54.490Z,39.40
2022-08-26T10:09:23.806Z,37.90
2022-08-26T10:11:54.049Z,36.63
2022-08-26T10:14:37.118Z,38.05
2022-08-26T10:17:11.080Z,37.45
2022-08-26T10:19:57.057Z,37.50
2022-08-26T10:22:24.071Z,34.78
2022-08-26T10:24:55.947Z,39.47
2022-08-26T10:27:40.487Z,34.28
2022-08-26T10:30:21.517Z,34.00
2022-08-26T10:33:18.559Z,32.25
2022-08-26T10:35:58.664Z,36.03
2022-08-26T10:38:39.225Z,37.03
2022-08-26T10:41:16.933Z,32.95
2022-08-26T10:46:34.498Z,35.20
2022-08-26T10:49:08.499Z,33.38
2022-08-26T10:51:42.188Z,31.45
2022-08-26T10:54:16.942Z,36.50
2022-08-26T10:56:44.018Z,34.88
2022-08-26T10:59:16.502Z,33.95
2022-08-26T11:01:43.430Z,36.80
2022-08-26T11:04:34.881Z,33.92
2022-08-26T11:07:39.161Z,33.70
2022-08-26T11:10:20.866Z,35.85
2022-08-26T11:12:55.778Z,34.33
2022-08-26T11:15:29.449Z,34.17
2022-08-26T11:18:01.865Z,33.40
2022-08-26T11:20:42.382Z,32.92
2022-08-26T11:23:23.983Z,34.67
2022-08-26T11:25:56.896Z,36.58
2022-08-26T11:28:48.102Z,35.05
2022-08-26T11:31:26.986Z,35.25
2022-08-26T11:34:40.869Z,37.30
2022-08-26T11:37:17.820Z,37.80
2022-08-26T11:39:57.010Z,36.03
2022-08-26T11:42:46.458Z,35.92
2022-08-26T11:45:28.468Z,37.38
2022-08-26T11:47:57.223Z,38.90
2022-08-26T11:50:29.525Z,38.30
2022-08-26T11:53:06.362Z,36.17
2022-08-26T11:55:42.959Z,38.22
2022-08-26T11:58:13.381Z,37.33
2022-08-26T12:00:52.499Z,37.13
2022-08-26T12:05:53.473Z,35.00
2022-08-26T12:08:24.743Z,37.17
2022-08-26T12:11:23.158Z,35.67
2022-08-26T12:14:00.093Z,34.50
2022-08-26T12:16:39.199Z,33.15
2022-08-26T12:19:21.604Z,34.53
2022-08-26T12:21:58.775Z,34.03
2022-08-26T12:24:26.286Z,32.13
2022-08-26T12:27:11.658Z,36.55
2022-08-26T12:29:39.581Z,36.78
2022-08-26T12:32:13.322Z,31.50
2022-08-26T12:34:46.694Z,31.70
2022-08-26T12:37:15.118Z,31.52
2022-08-26T12:39:44.479Z,34.08
2022-08-26T12:42:15.764Z,31.42
2022-08-26T12:44:58.453Z,30.77
2022-08-26T12:47:42.613Z,28.50
2022-08-26T12:50:18.841Z,29.27
2022-08-26T12:53:08.678Z,27.48
2022-08-26T12:55:44.177Z,25.60
2022-08-26T12:58:39.141Z,28.52
2022-08-26T13:01:08.674Z,28.40
2022-08-26T13:03:37.140Z,28.65
2022-08-26T13:06:22.288Z,28.23
2022-08-26T13:08:54.755Z,25.98
2022-08-26T13:11:44.853Z,25.67
2022-08-26T13:14:18.338Z,25.85
2022-08-26T13:16:52.795Z,24.98
2022-08-26T13:21:53.182Z,22.50
2022-08-26T13:24:27.067Z,21.00
2022-08-26T13:26:54.066Z,22.00
2022-08-26T13:29:20.873Z,22.42
2022-08-26T13:31:48.832Z,21.38
2022-08-26T13:34:19.247Z,22.13
2022-08-26T13:36:50.391Z,21.45
2022-08-26T13:39:17.870Z,23.05
2022-08-26T13:41:44.724Z,20.83
2022-08-26T13:44:11.969Z,21.05
2022-08-26T13:46:39.025Z,20.75
2022-08-26T13:49:06.467Z,20.88
2022-08-26T13:51:33.686Z,20.02
2022-08-26T13:54:01.951Z,20.98
2022-08-26T13:56:29.923Z,19.48
2022-08-26T13:58:57.734Z,17.15
2022-08-26T14:01:25.752Z,17.65
2022-08-26T14:03:59.117Z,16.13
2022-08-26T14:06:26.243Z,15.77
2022-08-26T14:08:53.330Z,16.00
2022-08-26T14:11:23.047Z,15.85
2022-08-26T14:13:50.368Z,18.85
2022-08-26T14:16:29.125Z,17.17
2022-08-26T14:19:00.249Z,16.92
2022-08-26T14:21:33.336Z,16.88
2022-08-26T14:24:03.765Z,17.45
2022-08-26T14:26:30.319Z,15.40
2022-08-26T14:29:01.340Z,15.30
2022-08-26T14:31:31.284Z,14.88
2022-08-26T14:34:02.475Z,16.70
2022-08-26T14:36:29.180Z,14.10
2022-08-26T14:38:58.171Z,15.43
2022-08-26T14:41:25.385Z,14.38
2022-08-26T14:44:13.648Z,15.57
2022-08-26T14:46:45.890Z,14.90
2022-08-26T14:49:13.190Z,14.13
2022-08-26T14:51:41.034Z,14.98
2022-08-26T14:54:11.809Z,14.57
2022-08-26T14:57:01.019Z,14.43
2022-08-26T14:59:30.550Z,15.07
2022-08-26T15:01:57.770Z,15.40
2022-08-26T15:04:25.305Z,15.88
2022-08-26T15:06:54.133Z,12.05
2022-08-26T15:09:21.528Z,13.25
2022-08-26T15:11:48.450Z,12.73
2022-08-26T15:14:19.629Z,13.40
2022-08-26T15:16:52.453Z,13.10
2022-08-26T15:19:20.648Z,13.57
2022-08-26T15:21:47.822Z,13.83
2022-08-26T15:24:16.960Z,13.27
2022-08-26T15:29:10.615Z,13.98
2022-08-26T15:31:37.228Z,12.88
2022-08-26T15:34:08.535Z,12.50
2022-08-26T15:36:37.723Z,13.38
2022-08-26T15:39:07.211Z,13.10
2022-08-26T15:41:34.944Z,10.68
2022-08-26T15:44:02.226Z,9.52
2022-08-26T15:46:30.377Z,9.63
2022-08-26T15:48:56.950Z,10.18
2022-08-26T15:51:26.881Z,8.85
2022-08-26T15:53:56.258Z,9.00
2022-08-26T15:56:29.667Z,8.32
2022-08-26T15:58:56.564Z,8.20
2022-08-26T16:01:27.734Z,7.53
2022-08-26T16:03:55.908Z,7.55
2022-08-26T16:06:27.366Z,7.45
2022-08-26T16:08:56.095Z,7.40
2022-08-26T16:11:23.542Z,6.80
2022-08-26T16:13:50.623Z,8.10
2022-08-26T16:16:18.081Z,7.22
2022-08-26T16:18:45.243Z,7.82
2022-08-26T16:21:16.362Z,8.90
2022-08-26T16:23:44.982Z,7.57
2022-08-26T16:26:19.305Z,7.78
2022-08-26T16:28:47.357Z,7.40
2022-08-26T16:31:15.455Z,6.95
2022-08-26T16:33:42.289Z,7.50
2022-08-26T16:36:09.833Z,7.15
2022-08-26T16:38:38.128Z,7.13
2022-08-26T16:41:05.969Z,7.57
2022-08-26T16:43:33.249Z,7.60
2022-08-26T16:46:00.129Z,7.53
2022-08-26T16:48:27.837Z,7.55
2022-08-26T16:50:55.622Z,6.68
2022-08-26T16:53:22.770Z,7.45
2022-08-26T16:55:50.699Z,7.50
2022-08-26T16:58:17.478Z,7.30
2022-08-26T17:00:45.169Z,7.10
2022-08-26T17:03:12.400Z,6.75
2022-08-26T17:05:40.329Z,7.40
2022-08-26T17:08:07.407Z,7.53
2022-08-26T17:10:34.548Z,7.63
2022-08-26T17:13:01.371Z,6.90
2022-08-26T17:15:28.383Z,6.65
2022-08-26T17:17:56.121Z,6.47
2022-08-26T17:20:24.435Z,6.75
2022-08-26T17:22:52.808Z,7.03
2022-08-26T17:25:21.785Z,6.97
2022-08-26T17:27:48.535Z,7.10
2022-08-26T17:30:16.860Z,6.18
2022-08-26T17:32:43.601Z,6.68
2022-08-26T17:35:12.911Z,7.28
2022-08-26T17:37:40.285Z,7.35
2022-08-26T17:40:09.989Z,6.20
2022-08-26T17:42:37.631Z,6.55
2022-08-26T17:45:04.537Z,6.10
2022-08-26T17:47:31.026Z,6.40
2022-08-26T17:49:57.601Z,6.03
2022-08-26T17:52:24.355Z,6.30
2022-08-26T17:54:56.338Z,6.72
2022-08-26T17:57:24.502Z,6.68
2022-08-26T17:59:51.006Z,6.05
2022-08-26T18:02:19.416Z,6.60
2022-08-26T18:04:45.928Z,6.60
2022-08-26T18:07:12.544Z,6.30
2022-08-26T18:09:39.278Z,6.50
2022-08-26T18:12:06.153Z,5.80
2022-08-26T18:14:33.793Z,6.13
2022-08-26T18:17:00.620Z,6.00
2022-08-26T18:19:27.817Z,6.38
2022-08-26T18:21:54.454Z,5.97
2022-08-26T18:24:21.336Z,6.43
2022-08-26T18:26:51.144Z,6.30
2022-08-26T18:29:20.000Z,6.30
2022-08-26T18:31:47.096Z,5.80
2022-08-26T18:34:15.583Z,6.45
2022-08-26T18:36:43.775Z,6.20
2022-08-26T18:39:12.228Z,6.72
2022-08-26T18:41:45.545Z,5.80
2022-08-26T18:44:14.230Z,6.10
2022-08-26T18:46:41.335Z,5.95
2022-08-26T18:49:08.517Z,6.25
2022-08-26T18:51:35.207Z,6.20
2022-08-26T18:54:04.589Z,6.50
2022-08-26T18:56:32.044Z,5.72
2022-08-26T18:59:01.617Z,5.38
2022-08-26T19:01:30.260Z,5.95
2022-08-26T19:03:59.004Z,4.45
2022-08-26T19:06:26.860Z,4.47
2022-08-26T19:08:53.784Z,4.93
2022-08-26T19:11:31.809Z,3.92
2022-08-26T19:14:00.605Z,4.55
2022-08-26T19:16:27.525Z,4.90
2022-08-26T19:18:56.061Z,4.38
2022-08-26T19:21:23.576Z,4.33
2022-08-26T19:23:51.120Z,4.78
2022-08-26T19:26:19.369Z,4.13
2022-08-26T19:28:46.064Z,3.40
2022-08-26T19:31:12.871Z,4.45
2022-08-26T19:33:42.949Z,4.00
2022-08-26T19:36:15.237Z,4.30
2022-08-26T19:38:42.863Z,4.70
2022-08-26T19:41:14.941Z,4.10
2022-08-26T19:43:41.890Z,3.95
2022-08-26T19:46:13.617Z,3.63
2022-08-26T19:48:43.916Z,3.75
2022-08-26T19:51:26.510Z,4.25
2022-08-26T19:53:54.735Z,4.03
2022-08-26T19:56:22.167Z,3.92
2022-08-26T19:58:49.390Z,4.18
2022-08-26T20:01:16.705Z,4.38
2022-08-26T20:03:43.965Z,3.60
2022-08-26T20:06:12.839Z,3.50
2022-08-26T20:08:40.983Z,3.42
2022-08-26T20:11:12.279Z,4.03
2022-08-26T20:13:40.582Z,3.35
2022-08-26T20:16:07.389Z,3.65
2022-08-26T20:18:52.803Z,3.63
2022-08-26T20:21:29.221Z,4.10
2022-08-26T20:24:07.153Z,4.07
2022-08-26T20:26:36.177Z,4.18
2022-08-26T20:29:04.220Z,4.45
2022-08-26T20:31:31.233Z,4.18
2022-08-26T20:33:58.403Z,4.32
2022-08-26T20:36:27.443Z,4.15
2022-08-26T20:38:55.195Z,3.92
2022-08-26T20:41:24.037Z,4.20
2022-08-26T20:43:50.683Z,3.88
2022-08-26T20:46:21.029Z,3.97
2022-08-26T20:48:49.585Z,4.18
2022-08-26T20:51:17.894Z,3.88
2022-08-26T20:53:44.932Z,3.75
2022-08-26T20:56:13.568Z,3.90
2022-08-26T20:58:40.880Z,3.90
2022-08-26T21:01:08.989Z,4.20
2022-08-26T21:03:36.865Z,3.53
2022-08-26T21:06:03.877Z,3.55
2022-08-26T21:08:33.384Z,3.85
2022-08-26T21:11:00.941Z,3.30
2022-08-26T21:13:35.766Z,3.63
2022-08-26T21:16:10.172Z,3.78
2022-08-26T21:18:36.935Z,3.85
2022-08-26T21:21:07.955Z,3.97
2022-08-26T21:23:35.832Z,3.55
2022-08-26T21:26:07.482Z,3.40
2022-08-26T21:28:39.527Z,3.83
2022-08-26T21:31:08.055Z,4.50
2022-08-26T21:33:36.075Z,3.60
2022-08-26T21:36:03.571Z,3.90
2022-08-26T21:38:33.254Z,3.33
2022-08-26T21:41:03.443Z,4.22
2022-08-26T21:43:35.220Z,4.20
2022-08-26T21:46:11.428Z,3.90
2022-08-26T21:48:50.521Z,3.38
2022-08-26T21:51:20.579Z,4.05
2022-08-26T21:53:47.932Z,4.28
2022-08-26T21:56:17.024Z,4.38
2022-08-26T21:58:44.165Z,4.05
2022-08-26T22:01:13.992Z,4.03
2022-08-26T22:03:46.887Z,4.90
2022-08-26T22:06:14.185Z,4.30
2022-08-26T22:08:40.663Z,4.60
2022-08-26T22:11:07.299Z,4.38
2022-08-26T22:13:36.923Z,5.50
2022-08-26T22:16:04.621Z,4.68
2022-08-26T22:18:31.784Z,4.45
2022-08-26T22:21:02.100Z,4.38
2022-08-26T22:23:28.897Z,4.72
2022-08-26T22:25:55.944Z,4.25
2022-08-26T22:28:22.832Z,4.53
2022-08-26T22:30:49.801Z,4.20
2022-08-26T22:33:16.574Z,4.22
2022-08-26T22:35:46.440Z,4.90
2022-08-26T22:38:13.440Z,5.13
2022-08-26T22:40:45.466Z,4.43
2022-08-26T22:43:12.906Z,4.43
2022-08-26T22:45:45.742Z,4.38
2022-08-26T22:48:15.511Z,4.38
2022-08-26T22:50:43.113Z,4.78
2022-08-26T22:53:10.055Z,3.78
2022-08-26T22:55:36.858Z,4.15
2022-08-26T22:58:04.676Z,5.50
2022-08-26T23:00:32.526Z,5.00
2022-08-26T23:02:59.329Z,4.18
2022-08-26T23:05:25.929Z,4.85
2022-08-26T23:07:52.487Z,5.07
2022-08-26T23:10:19.101Z,4.90
2022-08-26T23:12:45.605Z,4.70
2022-08-26T23:15:12.329Z,4.78
2022-08-26T23:17:39.640Z,5.28
2022-08-26T23:20:10.338Z,5.60
2022-08-26T23:22:37.646Z,5.15
2022-08-26T23:25:07.718Z,5.15
2022-08-26T23:27:36.481Z,5.72
2022-08-26T23:30:07.336Z,4.80
2022-08-26T23:32:33.847Z,4.90
2022-08-26T23:35:00.398Z,4.80
2022-08-26T23:37:39.206Z,5.05
2022-08-26T23:40:23.088Z,4.50
2022-08-26T23:42:51.032Z,5.40
2022-08-26T23:45:18.525Z,4.57
2022-08-26T23:47:46.178Z,4.57
2022-08-26T23:50:14.057Z,4.60
2022-08-26T23:52:58.912Z,5.43
2022-08-26T23:55:25.809Z,5.95
2022-08-26T23:57:52.574Z,5.78
